Time;durP1;ratioP1;P1;durP2;ratioP2;P2;SDS_P1;SDS_P2;PMS_P1;PMS_P2;Temp;Humidity;BMP_temperature;BMP_pressure;BME280_temperature;BME280_humidity;BME280_pressure;Samples;Min_cycle;Max_cycle;Signal;HPM_P1;HPM_P2
2022/03/12 00:00:46;;;;;;;10.02;6.20;;;;;;;8.74;31.67;100156.91;4965376;28;20508;-86
2022/03/12 00:03:15;;;;;;;12.43;6.75;;;;;;;8.76;31.34;100157.63;4957780;28;20045;-87
2022/03/12 00:05:52;;;;;;;11.30;6.50;;;;;;;8.73;31.41;100156.06;4977805;28;20102;-86
2022/03/12 00:08:21;;;;;;;15.10;6.30;;;;;;;8.73;31.42;100152.53;4950924;28;20045;-86
2022/03/12 00:10:50;;;;;;;11.93;6.65;;;;;;;8.69;31.63;100154.59;4973233;28;20498;-86
2022/03/12 00:13:21;;;;;;;12.60;6.95;;;;;;;8.69;31.49;100146.66;4987173;28;20569;-86
2022/03/12 00:15:50;;;;;;;13.85;6.68;;;;;;;8.66;31.63;100154.81;5025488;28;20062;-86
2022/03/12 00:18:19;;;;;;;12.18;6.70;;;;;;;8.64;31.55;100172.63;5004499;28;20066;-86
2022/03/12 00:20:50;;;;;;;12.10;6.63;;;;;;;8.60;31.48;100166.72;4994956;28;20045;-86
2022/03/12 00:23:21;;;;;;;12.48;6.95;;;;;;;8.62;31.64;100175.38;4986846;28;20096;-86
2022/03/12 00:25:49;;;;;;;13.50;6.53;;;;;;;8.57;31.64;100177.53;5003712;28;20052;-86
2022/03/12 00:28:16;;;;;;;12.32;6.55;;;;;;;8.56;31.41;100183.78;5023286;28;20116;-86
2022/03/12 00:30:47;;;;;;;12.23;6.32;;;;;;;8.53;31.76;100184.03;4997910;28;20112;-86
2022/03/12 00:33:18;;;;;;;15.43;6.93;;;;;;;8.52;31.83;100177.00;4965531;28;20042;-86
2022/03/12 00:35:50;;;;;;;13.88;6.35;;;;;;;8.50;31.61;100183.38;4992802;28;20124;-86
2022/03/12 00:38:19;;;;;;;12.20;7.35;;;;;;;8.50;31.70;100184.25;4974427;28;20141;-86
2022/03/12 00:40:45;;;;;;;14.93;6.53;;;;;;;8.50;31.65;100178.09;5006416;28;20046;-87
2022/03/12 00:43:15;;;;;;;11.48;6.55;;;;;;;8.52;31.64;100170.88;5005143;28;20085;-86
2022/03/12 00:45:45;;;;;;;10.05;6.15;;;;;;;8.52;31.50;100169.06;4985214;28;20053;-86
2022/03/12 00:48:11;;;;;;;11.10;6.57;;;;;;;8.33;31.89;100171.38;4994986;28;20059;-86
2022/03/12 00:50:58;;;;;;;12.63;6.85;;;;;;;8.37;31.76;100175.47;4961780;28;20664;-86
2022/03/12 00:53:25;;;;;;;12.65;7.28;;;;;;;8.39;32.05;100168.28;4979177;28;20120;-86
2022/03/12 00:56:19;;;;;;;11.02;6.75;;;;;;;8.29;31.82;100181.34;4996880;28;20047;-87
2022/03/12 00:58:47;;;;;;;11.75;6.85;;;;;;;8.38;32.23;100174.53;5008107;28;20046;-86
2022/03/12 01:01:14;;;;;;;14.43;6.75;;;;;;;8.38;31.97;100182.47;4994628;28;20053;-86
2022/03/12 01:03:41;;;;;;;11.43;6.53;;;;;;;8.36;32.16;100184.38;4962634;28;20108;-86
2022/03/12 01:06:13;;;;;;;13.05;7.43;;;;;;;8.35;32.01;100188.00;4992480;28;20054;-87
2022/03/12 01:08:41;;;;;;;12.20;6.97;;;;;;;8.37;31.69;100194.00;4982434;28;20480;-87
2022/03/12 01:11:09;;;;;;;16.13;7.43;;;;;;;8.35;32.04;100190.66;4990777;28;20057;-87
2022/03/12 01:13:36;;;;;;;11.50;6.35;;;;;;;8.31;32.20;100192.66;4956733;28;20081;-86
2022/03/12 01:16:03;;;;;;;10.70;6.82;;;;;;;8.29;31.63;100183.97;4997723;28;20497;-86
2022/03/12 01:18:30;;;;;;;12.38;6.63;;;;;;;8.27;31.94;100183.28;4986703;28;20442;-86
2022/03/12 01:21:12;;;;;;;15.55;6.55;;;;;;;8.17;32.16;100193.69;4986257;28;20547;-86
2022/03/12 01:23:39;;;;;;;13.25;6.45;;;;;;;8.21;32.02;100176.59;4948595;28;20053;-87
2022/03/12 01:26:06;;;;;;;11.63;7.38;;;;;;;8.23;32.03;100177.34;4980320;28;20048;-86
2022/03/12 01:28:33;;;;;;;15.40;7.13;;;;;;;8.22;32.01;100178.31;4971407;28;20038;-87
2022/03/12 01:31:00;;;;;;;11.90;6.53;;;;;;;8.21;32.04;100178.41;5001522;28;20045;-87
2022/03/12 01:33:28;;;;;;;11.40;7.35;;;;;;;8.17;32.03;100171.69;4979960;28;20046;-87
2022/03/12 01:35:56;;;;;;;10.77;6.47;;;;;;;8.16;32.13;100177.91;4982692;28;20213;-86
2022/03/12 01:38:34;;;;;;;13.90;6.88;;;;;;;8.08;32.01;100175.81;5008545;28;20134;-87
2022/03/12 01:41:06;;;;;;;12.52;7.20;;;;;;;8.14;32.11;100179.81;5027082;28;20056;-86
2022/03/12 01:43:36;;;;;;;12.48;7.28;;;;;;;8.08;32.30;100173.16;4987857;28;20133;-87
2022/03/12 01:46:10;;;;;;;12.32;7.80;;;;;;;8.05;32.41;100165.47;5010549;28;20088;-87
2022/03/12 01:48:46;;;;;;;13.68;7.32;;;;;;;8.01;32.39;100183.38;5000310;28;20049;-87
2022/03/12 01:51:14;;;;;;;12.23;7.43;;;;;;;8.01;32.58;100187.78;5000629;28;20054;-86
2022/03/12 01:53:40;;;;;;;11.73;6.95;;;;;;;8.02;32.72;100184.22;4992288;28;20052;-86
2022/03/12 01:56:07;;;;;;;13.73;7.13;;;;;;;8.00;32.67;100180.81;4994284;28;20053;-85
2022/03/12 01:58:35;;;;;;;16.70;7.03;;;;;;;8.02;32.52;100178.91;4971913;28;20033;-86
2022/03/12 02:01:03;;;;;;;15.57;6.90;;;;;;;8.02;32.58;100179.75;4967672;28;20049;-86
2022/03/12 02:03:31;;;;;;;12.77;6.93;;;;;;;7.99;32.46;100190.56;4989934;28;20468;-86
2022/03/12 02:05:59;;;;;;;12.80;6.85;;;;;;;7.96;32.61;100189.91;4993702;28;20050;-87
2022/03/12 02:08:25;;;;;;;11.10;6.40;;;;;;;7.94;32.55;100184.75;4979265;28;20066;-86
2022/03/12 02:10:57;;;;;;;13.95;7.25;;;;;;;7.95;32.56;100186.44;4980983;28;20046;-87
2022/03/12 02:13:27;;;;;;;12.20;7.28;;;;;;;7.91;32.80;100186.75;4922641;28;20062;-86
2022/03/12 02:16:05;;;;;;;11.23;6.63;;;;;;;7.83;32.93;100185.50;4959282;28;20045;-86
2022/03/12 02:18:33;;;;;;;9.70;6.07;;;;;;;7.88;32.60;100182.53;4981519;28;20038;-86
2022/03/12 02:21:00;;;;;;;12.75;6.75;;;;;;;7.86;33.10;100192.41;4984318;28;20038;-86
2022/03/12 02:23:26;;;;;;;14.10;7.85;;;;;;;7.86;32.92;100192.41;4924749;28;20050;-86
2022/03/12 02:26:02;;;;;;;12.95;7.30;;;;;;;7.80;32.76;100192.81;4953660;28;20505;-86
2022/03/12 02:28:29;;;;;;;12.50;6.78;;;;;;;7.78;32.72;100192.09;4930736;28;20095;-86
2022/03/12 02:30:57;;;;;;;11.38;7.00;;;;;;;7.86;32.59;100192.41;4947587;28;20134;-86
2022/03/12 02:33:28;;;;;;;13.80;6.95;;;;;;;7.67;32.48;100190.22;4932270;28;20051;-86
2022/03/12 02:35:56;;;;;;;13.95;6.55;;;;;;;7.63;32.57;100191.38;4944626;28;20097;-86
2022/03/12 02:38:25;;;;;;;11.10;6.65;;;;;;;7.59;32.72;100197.84;4949052;28;20046;-87
2022/03/12 02:40:52;;;;;;;10.98;5.72;;;;;;;7.51;32.62;100203.66;4916912;28;20517;-87
2022/03/12 02:43:26;;;;;;;12.13;6.03;;;;;;;7.45;32.57;100196.13;4943454;28;20053;-86
2022/03/12 02:46:01;;;;;;;11.30;6.70;;;;;;;7.45;32.72;100198.78;4998415;28;20534;-85
2022/03/12 02:48:30;;;;;;;15.25;6.43;;;;;;;7.44;32.58;100201.56;4982822;28;20061;-85
2022/03/12 02:50:56;;;;;;;12.73;6.72;;;;;;;7.37;32.66;100201.97;4991604;28;20049;-86
2022/03/12 02:53:23;;;;;;;12.52;6.82;;;;;;;7.34;32.90;100202.19;5048035;28;20124;-87
2022/03/12 02:55:51;;;;;;;11.93;6.30;;;;;;;7.35;32.55;100205.66;5031473;28;21652;-86
2022/03/12 02:58:18;;;;;;;11.45;6.75;;;;;;;7.32;33.15;100206.72;5006703;28;20068;-86
2022/03/12 03:00:44;;;;;;;11.75;6.60;;;;;;;7.33;33.28;100210.22;4996929;28;20137;-86
2022/03/12 03:03:11;;;;;;;12.43;6.32;;;;;;;7.30;33.31;100211.28;5015384;28;20049;-86
2022/03/12 03:05:47;;;;;;;13.23;6.95;;;;;;;7.29;33.50;100212.22;5016390;28;20700;-86
2022/03/12 03:08:20;;;;;;;13.55;7.22;;;;;;;7.30;33.05;100213.06;5012934;28;20042;-86
2022/03/12 03:10:52;;;;;;;11.15;6.95;;;;;;;7.26;33.13;100206.31;4977536;28;20061;-86
2022/03/12 03:13:20;;;;;;;15.13;7.00;;;;;;;7.18;32.95;100220.88;4995330;28;20401;-86
2022/03/12 03:15:55;;;;;;;11.68;6.72;;;;;;;7.24;33.17;100229.34;5031141;28;20049;-86
2022/03/12 03:18:24;;;;;;;13.68;7.00;;;;;;;7.24;33.09;100229.34;4987676;28;20077;-86
2022/03/12 03:20:52;;;;;;;13.60;6.88;;;;;;;7.26;33.14;100232.72;4972570;28;20145;-86
2022/03/12 03:23:22;;;;;;;15.70;6.55;;;;;;;6.98;33.42;100233.75;4952985;28;20057;-86
2022/03/12 03:25:50;;;;;;;11.38;6.00;;;;;;;7.08;33.18;100240.94;5010370;28;20041;-87
2022/03/12 03:28:17;;;;;;;11.02;6.35;;;;;;;7.08;33.33;100243.59;4970682;28;20052;-86
2022/03/12 03:30:44;;;;;;;12.90;7.05;;;;;;;7.09;33.21;100244.44;4973249;28;20074;-86
2022/03/12 03:33:15;;;;;;;11.75;6.78;;;;;;;7.14;33.15;100234.41;4994546;28;20053;-86
2022/03/12 03:35:42;;;;;;;12.73;6.13;;;;;;;7.18;33.43;100234.09;4935041;28;20046;-86
2022/03/12 03:38:10;;;;;;;14.10;6.65;;;;;;;7.17;33.39;100240.34;4957286;28;20042;-87
2022/03/12 03:40:37;;;;;;;9.52;5.70;;;;;;;7.13;33.32;100249.41;4972001;28;20042;-86
2022/03/12 03:43:12;;;;;;;10.85;6.32;;;;;;;7.11;33.35;100250.44;4919162;28;20066;-86
2022/03/12 03:46:07;;;;;;;14.23;6.35;;;;;;;7.00;33.45;100258.25;4982313;28;20046;-86
2022/03/12 03:48:38;;;;;;;12.60;6.13;;;;;;;7.03;33.39;100261.53;4930301;28;20046;-86
2022/03/12 03:51:04;;;;;;;12.13;6.55;;;;;;;6.98;33.68;100252.22;5039732;28;20040;-86
2022/03/12 03:53:31;;;;;;;12.52;6.00;;;;;;;6.98;33.48;100253.06;5011542;28;20044;-86
2022/03/12 03:56:00;;;;;;;16.38;6.15;;;;;;;7.02;33.56;100257.22;4976005;28;20045;-86
2022/03/12 03:58:28;;;;;;;11.63;6.30;;;;;;;7.01;33.64;100259.94;5004691;28;20042;-86
2022/03/12 04:00:59;;;;;;;10.05;6.00;;;;;;;7.02;33.52;100259.84;5036572;28;20041;-86
2022/03/12 04:03:32;;;;;;;10.55;6.40;;;;;;;7.08;33.66;100269.16;5007169;28;20051;-86
2022/03/12 04:06:01;;;;;;;13.20;6.50;;;;;;;7.10;33.76;100264.63;4994572;28;20409;-85
2022/03/12 04:08:31;;;;;;;11.75;6.43;;;;;;;7.13;33.71;100277.63;4990890;28;20058;-86
2022/03/12 04:10:58;;;;;;;13.23;6.47;;;;;;;7.06;33.13;100274.53;4980124;28;20052;-86
2022/03/12 04:13:25;;;;;;;10.70;6.53;;;;;;;6.91;33.58;100273.75;4979297;28;20046;-86
2022/03/12 04:15:52;;;;;;;11.38;6.82;;;;;;;6.92;33.98;100270.16;4979870;28;20104;-86
2022/03/12 04:18:21;;;;;;;14.65;6.28;;;;;;;6.95;34.29;100269.97;4992182;28;20042;-85
2022/03/12 04:20:48;;;;;;;10.90;6.65;;;;;;;6.86;34.18;100280.28;4985307;28;20044;-86
2022/03/12 04:23:21;;;;;;;11.13;6.45;;;;;;;6.78;33.61;100279.94;4973557;28;20497;-86
2022/03/12 04:25:49;;;;;;;12.23;6.20;;;;;;;6.77;33.72;100291.44;4971692;28;20042;-86
2022/03/12 04:28:16;;;;;;;11.80;6.10;;;;;;;6.73;33.97;100285.53;5000661;28;21038;-87
2022/03/12 04:30:43;;;;;;;10.40;6.05;;;;;;;6.82;33.79;100289.34;4971896;28;20096;-86
2022/03/12 04:33:11;;;;;;;12.50;6.32;;;;;;;6.74;33.68;100285.44;4966996;28;20045;-86
2022/03/12 04:35:38;;;;;;;10.05;6.13;;;;;;;6.78;33.27;100290.50;4970090;28;20120;-87
2022/03/12 04:38:05;;;;;;;10.98;6.68;;;;;;;6.81;33.75;100293.78;5007842;28;20038;-86
2022/03/12 04:40:32;;;;;;;10.70;5.75;;;;;;;6.80;33.69;100296.53;4985205;28;20042;-86
2022/03/12 04:43:00;;;;;;;10.52;5.82;;;;;;;6.82;33.34;100298.13;5013767;28;21187;-86
2022/03/12 04:45:27;;;;;;;9.23;5.65;;;;;;;6.80;33.76;100302.66;5009187;28;20045;-87
2022/03/12 04:47:54;;;;;;;17.38;6.80;;;;;;;6.85;33.90;100305.00;4948686;28;20050;-86
2022/03/12 04:50:22;;;;;;;12.85;5.97;;;;;;;6.84;33.79;100305.94;4982952;28;20147;-86
2022/03/12 04:52:52;;;;;;;11.02;6.05;;;;;;;6.76;33.50;100300.31;4959377;28;20057;-85
2022/03/12 04:55:22;;;;;;;10.00;6.68;;;;;;;6.80;34.05;100301.81;4984143;28;20455;-86
2022/03/12 04:57:49;;;;;;;11.40;6.28;;;;;;;6.82;33.93;100297.25;4963791;28;20401;-86
2022/03/12 05:00:26;;;;;;;9.48;5.85;;;;;;;6.79;33.45;100305.38;4979917;28;20105;-87
2022/03/12 05:02:55;;;;;;;13.48;6.50;;;;;;;6.81;33.67;100311.41;4963725;28;20513;-86
2022/03/12 05:05:22;;;;;;;20.05;8.43;;;;;;;6.78;33.64;100315.09;4988419;28;20058;-87
2022/03/12 05:07:50;;;;;;;11.60;6.43;;;;;;;6.79;33.82;100310.66;4983953;28;20066;-87
2022/03/12 05:10:17;;;;;;;10.50;6.75;;;;;;;6.79;33.67;100310.66;5005084;28;20049;-87
2022/03/12 05:12:48;;;;;;;12.68;6.78;;;;;;;6.79;33.52;100311.50;4985201;28;20074;-86
2022/03/12 05:15:16;;;;;;;10.50;6.15;;;;;;;6.67;33.57;100307.88;4972161;28;20493;-86
2022/03/12 05:17:46;;;;;;;13.43;7.32;;;;;;;6.68;34.08;100309.56;4991364;28;20121;-86
2022/03/12 05:20:21;;;;;;;10.02;6.40;;;;;;;6.63;33.70;100318.72;4964076;28;20046;-86
2022/03/12 05:22:51;;;;;;;8.65;5.45;;;;;;;6.69;33.84;100324.47;4991340;28;20063;-86
2022/03/12 05:25:19;;;;;;;9.30;6.03;;;;;;;6.71;33.95;100325.19;4983077;28;20052;-86
2022/03/12 05:27:51;;;;;;;13.10;6.43;;;;;;;6.67;34.11;100326.34;5002783;28;20540;-86
2022/03/12 05:30:18;;;;;;;11.77;6.50;;;;;;;6.63;33.87;100326.66;5020252;28;20047;-86
2022/03/12 05:32:47;;;;;;;12.15;7.15;;;;;;;6.67;33.72;100322.88;5023895;28;20510;-87
2022/03/12 05:35:15;;;;;;;12.20;6.50;;;;;;;6.67;33.91;100328.16;5003978;28;20040;-86
2022/03/12 05:37:44;;;;;;;10.85;6.30;;;;;;;6.66;34.00;100329.06;5010329;28;20050;-86
2022/03/12 05:40:11;;;;;;;10.90;6.63;;;;;;;6.67;33.90;100342.19;4995255;28;20046;-86
2022/03/12 05:42:38;;;;;;;10.95;6.55;;;;;;;6.68;33.86;100346.50;4968704;28;20050;-86
2022/03/12 05:45:09;;;;;;;14.05;6.07;;;;;;;6.60;33.90;100347.97;5015706;28;20038;-86
2022/03/12 05:47:42;;;;;;;13.13;6.38;;;;;;;6.62;33.77;100348.72;5034715;28;20944;-86
2022/03/12 05:50:10;;;;;;;10.18;6.40;;;;;;;6.63;33.75;100350.41;5039582;28;20072;-86
2022/03/12 05:52:38;;;;;;;11.65;6.15;;;;;;;6.61;33.53;100353.13;5015646;28;20034;-87
2022/03/12 05:55:08;;;;;;;13.68;6.40;;;;;;;6.60;33.79;100354.06;5004392;28;20065;-86
2022/03/12 05:57:37;;;;;;;10.30;5.90;;;;;;;6.59;33.66;100354.16;5039228;28;20455;-86
2022/03/12 06:00:08;;;;;;;11.23;6.38;;;;;;;6.45;34.03;100357.69;5004256;28;20061;-86
2022/03/12 06:02:49;;;;;;;10.13;6.45;;;;;;;6.49;34.04;100365.31;5005689;28;20052;-87
2022/03/12 06:05:23;;;;;;;13.57;5.90;;;;;;;6.49;33.95;100359.19;5039253;28;20666;-87
2022/03/12 06:07:54;;;;;;;12.25;6.07;;;;;;;6.49;34.16;100375.03;5008379;28;20575;-86
2022/03/12 06:10:28;;;;;;;12.10;6.05;;;;;;;6.52;33.82;100369.56;4986225;28;20148;-86
2022/03/12 06:12:56;;;;;;;13.13;6.68;;;;;;;6.48;33.89;100365.41;5021584;28;20405;-86
2022/03/12 06:15:26;;;;;;;12.13;6.25;;;;;;;6.47;33.71;100377.75;5008119;28;20046;-86
2022/03/12 06:17:53;;;;;;;9.93;6.20;;;;;;;6.46;33.82;100369.91;5000611;28;20034;-87
2022/03/12 06:20:21;;;;;;;10.95;6.57;;;;;;;6.42;33.90;100368.44;4988384;28;20046;-86
2022/03/12 06:22:50;;;;;;;14.30;6.32;;;;;;;6.41;34.18;100372.88;5000834;28;20057;-86
2022/03/12 06:25:20;;;;;;;10.50;5.85;;;;;;;6.43;33.86;100370.13;5040769;28;20155;-86
2022/03/12 06:27:52;;;;;;;12.45;6.50;;;;;;;6.39;34.08;100366.84;5025546;28;20033;-86
2022/03/12 06:30:21;;;;;;;9.95;5.68;;;;;;;6.36;33.80;100368.81;5044531;28;20125;-86
2022/03/12 06:32:48;;;;;;;11.68;6.30;;;;;;;6.39;33.91;100379.19;4968536;28;20643;-86
2022/03/12 06:35:16;;;;;;;10.85;6.30;;;;;;;6.41;34.34;100380.78;4966227;28;20137;-86
2022/03/12 06:37:43;;;;;;;13.48;6.63;;;;;;;6.44;34.07;100385.03;4993263;28;20056;-86
2022/03/12 06:40:16;;;;;;;11.52;6.25;;;;;;;6.46;34.17;100391.03;4984466;28;20509;-86
2022/03/12 06:42:44;;;;;;;11.63;6.28;;;;;;;6.23;34.37;100395.09;4991400;28;20042;-86
2022/03/12 06:45:15;;;;;;;13.73;6.38;;;;;;;6.34;34.25;100391.81;5009865;28;20058;-86
2022/03/12 06:47:46;;;;;;;12.65;7.38;;;;;;;6.28;34.27;100400.94;4969680;28;20124;-86
2022/03/12 06:50:16;;;;;;;12.85;6.13;;;;;;;6.26;34.38;100406.31;4985127;28;20478;-86
2022/03/12 06:52:47;;;;;;;12.25;5.80;;;;;;;6.37;34.32;100396.88;5002807;28;20429;-86
2022/03/12 06:55:15;;;;;;;11.55;6.65;;;;;;;5.82;35.30;100398.41;4989643;28;20123;-86
2022/03/12 06:57:42;;;;;;;9.38;5.70;;;;;;;6.03;34.74;100401.56;4970278;28;21800;-81
2022/03/12 07:00:15;;;;;;;11.90;6.38;;;;;;;5.78;35.75;100399.56;5000451;28;20142;-81
2022/03/12 07:02:43;;;;;;;;;;;;;;;5.72;35.99;100395.47;4976309;28;20041;-80
2022/03/12 07:05:11;;;;;;;8.23;4.90;;;;;;;5.75;35.31;100400.59;5016112;28;20004;-81
2022/03/12 07:07:38;;;;;;;10.18;6.35;;;;;;;5.74;35.43;100398.03;4991802;28;20069;-81
2022/03/12 07:10:08;;;;;;;9.48;5.50;;;;;;;5.78;35.81;100403.03;4981723;28;20056;-81
2022/03/12 07:12:37;;;;;;;10.68;6.63;;;;;;;5.85;35.48;100408.75;5009331;28;20501;-82
2022/03/12 07:15:05;;;;;;;10.48;6.85;;;;;;;5.71;35.98;100409.59;4996214;28;20045;-81
2022/03/12 07:17:32;;;;;;;12.82;7.05;;;;;;;5.80;35.66;100405.56;4992341;28;20053;-81
2022/03/12 07:19:59;;;;;;;10.27;5.97;;;;;;;5.79;35.83;100409.13;4991506;28;20046;-81
2022/03/12 07:22:26;;;;;;;15.35;6.97;;;;;;;5.87;35.28;100412.16;4983727;28;20073;-81
2022/03/12 07:24:53;;;;;;;10.68;6.13;;;;;;;5.91;35.64;100402.31;4979217;28;20050;-81
2022/03/12 07:27:22;;;;;;;10.45;6.25;;;;;;;5.80;35.98;100410.81;5001262;28;20050;-81
2022/03/12 07:29:49;;;;;;;14.07;6.25;;;;;;;5.84;35.51;100415.00;5002388;28;20130;-81
2022/03/12 07:32:16;;;;;;;10.80;5.88;;;;;;;5.86;35.99;100410.47;4992540;28;20502;-81
2022/03/12 07:34:43;;;;;;;11.57;6.22;;;;;;;5.90;35.70;100404.06;5007179;28;20049;-81
2022/03/12 07:37:12;;;;;;;10.52;5.57;;;;;;;5.65;36.17;100405.53;4999773;28;20045;-81
2022/03/12 07:39:39;;;;;;;11.63;6.43;;;;;;;5.81;35.97;100404.63;4995049;28;20103;-81
2022/03/12 07:42:06;;;;;;;8.68;5.68;;;;;;;5.92;35.45;100402.19;5011174;28;20054;-81
2022/03/12 07:44:39;;;;;;;10.55;6.28;;;;;;;5.89;36.12;100399.75;5006798;28;20072;-81
2022/03/12 07:47:07;;;;;;;12.82;6.63;;;;;;;5.88;35.96;100408.59;4990696;28;20070;-81
2022/03/12 07:49:34;;;;;;;11.90;6.18;;;;;;;5.82;36.16;100407.16;5002019;28;20415;-81
2022/03/12 07:52:02;;;;;;;12.50;6.68;;;;;;;5.82;36.30;100411.59;5002685;28;20046;-81
2022/03/12 07:54:30;;;;;;;9.55;6.13;;;;;;;5.84;36.36;100410.56;5001432;28;20050;-81
2022/03/12 07:56:57;;;;;;;14.63;6.95;;;;;;;5.76;36.23;100412.81;5005124;28;20041;-80
2022/03/12 07:59:25;;;;;;;12.38;6.00;;;;;;;5.79;36.08;100404.72;5022369;28;20068;-81
2022/03/12 08:01:52;;;;;;;9.38;6.20;;;;;;;5.77;36.33;100401.31;5038855;28;20125;-80
2022/03/12 08:04:19;;;;;;;9.55;6.15;;;;;;;5.91;36.39;100404.94;5010332;28;20504;-81
2022/03/12 08:06:46;;;;;;;14.35;6.65;;;;;;;5.83;36.38;100408.03;5029348;28;20128;-80
2022/03/12 08:09:13;;;;;;;12.88;6.22;;;;;;;5.58;37.07;100411.25;4979820;28;20133;-81
2022/03/12 08:11:40;;;;;;;13.35;7.15;;;;;;;5.75;36.66;100408.50;5008000;28;20095;-79
2022/03/12 08:14:08;;;;;;;10.98;6.00;;;;;;;5.78;36.57;100418.84;4980071;28;20066;-79
2022/03/12 08:16:37;;;;;;;10.77;6.97;;;;;;;5.87;36.94;100410.38;4996214;28;20545;-79
2022/03/12 08:19:06;;;;;;;10.98;5.45;;;;;;;5.88;36.42;100414.72;4992766;28;20057;-80
2022/03/12 08:21:33;;;;;;;11.50;6.30;;;;;;;5.90;36.78;100404.06;4984325;28;20096;-80
2022/03/12 08:24:04;;;;;;;12.27;6.63;;;;;;;6.02;36.83;100403.38;4991283;28;20918;-80
2022/03/12 08:26:35;;;;;;;11.13;6.20;;;;;;;6.05;36.61;100404.97;4990513;28;20502;-80
2022/03/12 08:29:01;;;;;;;11.55;7.00;;;;;;;6.34;36.97;100399.72;4990757;28;20084;-80
2022/03/12 08:31:28;;;;;;;10.63;6.07;;;;;;;6.14;36.44;100398.31;5009033;28;20049;-80
2022/03/12 08:33:57;;;;;;;11.25;6.93;;;;;;;6.11;37.03;100398.47;4975844;28;20249;-80
2022/03/12 08:36:24;;;;;;;11.93;6.38;;;;;;;6.11;37.12;100409.88;4980249;28;20057;-80
2022/03/12 08:38:53;;;;;;;9.88;5.75;;;;;;;6.13;36.73;100399.22;5008004;28;20043;-80
2022/03/12 08:41:22;;;;;;;12.13;6.70;;;;;;;6.25;36.62;100407.22;4975472;28;20049;-80
2022/03/12 08:43:49;;;;;;;11.13;6.13;;;;;;;6.24;36.79;100402.06;5005891;28;20045;-80
2022/03/12 08:46:16;;;;;;;10.35;6.40;;;;;;;6.25;36.99;100396.69;4997136;28;20042;-80
2022/03/12 08:48:48;;;;;;;11.77;6.55;;;;;;;6.26;37.31;100395.75;5001225;28;20507;-80
2022/03/12 08:51:15;;;;;;;10.98;6.40;;;;;;;6.31;37.04;100403.41;5029526;28;20049;-80
2022/03/12 08:53:42;;;;;;;11.57;6.47;;;;;;;6.27;36.83;100401.88;4992944;28;20076;-80
2022/03/12 08:56:09;;;;;;;10.85;7.03;;;;;;;6.32;36.82;100398.97;4956923;28;20472;-80
2022/03/12 08:58:37;;;;;;;12.45;6.75;;;;;;;6.50;36.28;100400.44;4996293;28;20132;-80
2022/03/12 09:01:06;;;;;;;10.55;6.82;;;;;;;6.38;36.69;100398.56;5005873;28;20044;-80
2022/03/12 09:03:33;;;;;;;11.30;6.65;;;;;;;6.40;36.39;100401.97;5009975;28;20512;-80
2022/03/12 09:06:00;;;;;;;12.13;6.22;;;;;;;6.34;36.60;100405.00;5007895;28;20417;-81
2022/03/12 09:08:27;;;;;;;10.30;6.13;;;;;;;6.39;37.12;100395.84;5037312;28;20835;-80
2022/03/12 09:10:55;;;;;;;10.27;6.70;;;;;;;6.45;36.70;100391.97;5042347;28;20142;-80
2022/03/12 09:13:22;;;;;;;11.23;7.43;;;;;;;6.45;37.09;100391.97;5020031;28;20044;-79
2022/03/12 09:15:51;;;;;;;11.15;6.32;;;;;;;6.49;36.78;100389.06;5028505;28;20050;-80
2022/03/12 09:18:20;;;;;;;11.48;6.28;;;;;;;6.55;36.94;100400.16;5017038;28;20044;-80
2022/03/12 09:20:47;;;;;;;13.93;6.72;;;;;;;6.64;36.82;100387.25;5020670;28;20180;-80
2022/03/12 09:23:16;;;;;;;14.60;6.60;;;;;;;6.69;36.59;100379.88;4988110;28;20038;-80
2022/03/12 09:25:47;;;;;;;14.35;7.22;;;;;;;6.46;37.43;100391.91;5059564;28;20075;-80
2022/03/12 09:28:16;;;;;;;12.07;6.88;;;;;;;6.79;36.55;100395.97;4985846;28;20072;-81
2022/03/12 09:30:43;;;;;;;14.02;6.95;;;;;;;6.64;37.15;100397.81;4979785;28;20508;-82
2022/03/12 09:33:10;;;;;;;11.77;6.78;;;;;;;6.65;37.08;100390.72;4996959;28;20041;-80
2022/03/12 09:35:36;;;;;;;11.80;6.72;;;;;;;6.69;36.88;100390.44;4996553;28;20044;-81
2022/03/12 09:38:04;;;;;;;14.32;7.85;;;;;;;6.82;37.52;100393.16;5034085;28;20053;-80
2022/03/12 09:40:31;;;;;;;15.85;7.30;;;;;;;6.94;37.45;100400.25;5034635;28;20556;-80
2022/03/12 09:42:59;;;;;;;11.55;6.93;;;;;;;6.91;37.06;100386.41;5025323;28;20072;-81
2022/03/12 09:45:26;;;;;;;12.50;7.55;;;;;;;6.85;36.95;100398.22;5031869;28;20070;-81
2022/03/12 09:47:52;;;;;;;14.07;8.70;;;;;;;6.94;37.10;100391.50;4988130;28;20386;-80
2022/03/12 09:50:20;;;;;;;13.93;7.22;;;;;;;7.07;37.20;100388.91;5026929;28;20501;-81
2022/03/12 09:52:48;;;;;;;16.60;7.53;;;;;;;7.06;37.70;100393.34;5047879;28;20041;-82
2022/03/12 09:55:16;;;;;;;15.23;6.93;;;;;;;7.07;37.39;100383.63;5030098;28;20041;-81
2022/03/12 09:57:44;;;;;;;13.20;7.85;;;;;;;7.08;37.26;100390.63;5023201;28;20509;-81
2022/03/12 10:00:12;;;;;;;12.05;7.00;;;;;;;7.09;37.76;100376.47;5037506;28;20057;-81
2022/03/12 10:02:39;;;;;;;14.23;7.95;;;;;;;7.16;37.31;100393.59;5009739;28;20046;-80
2022/03/12 10:05:07;;;;;;;12.18;7.65;;;;;;;7.18;36.77;100374.06;5007134;28;20041;-81
2022/03/12 10:07:34;;;;;;;12.15;7.43;;;;;;;7.17;37.30;100377.66;4988426;28;20052;-81
2022/03/12 10:10:01;;;;;;;13.02;7.60;;;;;;;7.25;37.54;100358.69;5009199;28;20042;-80
2022/03/12 10:12:28;;;;;;;12.15;8.23;;;;;;;7.39;37.47;100370.94;5001376;28;20050;-80
2022/03/12 10:14:58;;;;;;;13.13;8.35;;;;;;;7.58;37.40;100362.63;4989398;28;20050;-80
2022/03/12 10:17:24;;;;;;;15.65;8.55;;;;;;;7.43;37.61;100356.59;4977361;28;20037;-81
2022/03/12 10:19:51;;;;;;;18.90;9.15;;;;;;;7.68;36.71;100361.06;4991547;28;20497;-81
2022/03/12 10:22:19;;;;;;;15.57;8.98;;;;;;;7.61;36.72;100360.63;5024800;28;20051;-80
2022/03/12 10:24:45;;;;;;;15.95;8.60;;;;;;;7.75;36.89;100356.19;5019005;28;20044;-80
2022/03/12 10:27:12;;;;;;;14.93;8.63;;;;;;;7.75;37.29;100361.50;5016007;28;20160;-80
2022/03/12 10:29:40;;;;;;;16.15;8.73;;;;;;;7.72;37.40;100354.63;5031847;28;20484;-80
2022/03/12 10:32:41;;;;;;;14.52;8.88;;;;;;;7.67;37.62;100354.09;5053665;28;20075;-80
2022/03/12 10:35:09;;;;;;;14.55;8.15;;;;;;;7.78;38.17;100356.81;4988718;28;20420;-80
2022/03/12 10:37:36;;;;;;;16.92;8.65;;;;;;;7.84;38.07;100358.22;5004613;28;20496;-81
2022/03/12 10:40:23;;;;;;;17.25;8.88;;;;;;;7.85;38.01;100341.41;5037116;28;20393;-81
2022/03/12 10:42:59;;;;;;;14.85;7.40;;;;;;;7.81;37.84;100338.13;5011586;28;20042;-80
2022/03/12 10:45:31;;;;;;;14.05;9.20;;;;;;;7.93;38.58;100331.13;5026050;28;20111;-81
2022/03/12 10:47:59;;;;;;;14.48;8.40;;;;;;;7.93;37.83;100333.78;5014609;28;20049;-81
2022/03/12 10:50:43;;;;;;;14.82;8.57;;;;;;;7.87;37.87;100325.44;4998320;28;20040;-80
2022/03/12 10:53:11;;;;;;;19.00;9.95;;;;;;;8.13;37.93;100326.25;5016703;28;20046;-81
2022/03/12 10:55:49;;;;;;;14.23;8.02;;;;;;;7.96;38.12;100323.00;5043248;28;20824;-80
2022/03/12 10:58:27;;;;;;;18.17;8.85;;;;;;;7.95;38.24;100329.22;5004879;28;20193;-80
2022/03/12 11:00:59;;;;;;;14.02;8.18;;;;;;;7.98;38.28;100334.31;4981243;28;20509;-81
2022/03/12 11:03:33;;;;;;;16.08;8.73;;;;;;;8.01;38.35;100322.66;5030081;28;20056;-84
2022/03/12 11:06:00;;;;;;;15.48;8.60;;;;;;;8.08;38.30;100321.28;4991648;28;20556;-83
2022/03/12 11:08:31;;;;;;;15.57;8.43;;;;;;;8.11;38.36;100322.88;4993110;28;20046;-83
2022/03/12 11:11:00;;;;;;;21.25;9.10;;;;;;;8.10;38.46;100308.81;4999368;28;20498;-83
2022/03/12 11:13:39;;;;;;;16.30;8.68;;;;;;;8.06;38.96;100309.97;4994103;28;20038;-83
2022/03/12 11:16:21;;;;;;;19.48;9.18;;;;;;;8.12;38.56;100308.72;4991127;28;20046;-82
2022/03/12 11:18:51;;;;;;;15.48;8.63;;;;;;;8.28;38.61;100306.66;4922766;28;20081;-83
2022/03/12 11:21:31;;;;;;;16.08;8.75;;;;;;;8.26;38.63;100300.63;4980350;28;20053;-81
2022/03/12 11:23:59;;;;;;;15.93;9.20;;;;;;;8.34;38.41;100295.63;5003923;28;20057;-81
2022/03/12 11:26:27;;;;;;;16.63;8.68;;;;;;;8.45;38.45;100295.75;4971324;28;20097;-81
2022/03/12 11:28:57;;;;;;;16.90;9.15;;;;;;;8.38;38.86;100291.81;4996290;28;20532;-81
2022/03/12 11:31:46;;;;;;;17.23;7.95;;;;;;;8.32;39.07;100294.91;5029081;28;20049;-81
2022/03/12 11:34:20;;;;;;;13.50;8.25;;;;;;;8.43;39.33;100287.06;5038394;28;20045;-81
2022/03/12 11:37:04;;;;;;;16.15;9.27;;;;;;;8.52;39.26;100293.47;5020782;28;20441;-81